Skip Navigation Links Skip Navigation Links

Current Weather

Henderson-Oxford, Oxford, N.C.

For information only: do not use for flight planning or navigation.
Latest weather
Observation time Friday, December 4, 2020 2:35 AM EST
Local time Friday, December 4, 2020 2:41 AM EST
Flight conditions Visual Meteorological Conditions
Winds
Wind direction South-Southwest (210°)
Wind speed 6 mph
Visibility 10 mi.
Sky condition
Ceiling unlimited
Sky clear
Temperature 40°F
Dewpoint 28°F
Altimeter 30.22 in.Hg
Derived measurements
Relative humidity 60%
Wind chill 36°F
Density altitude -995 ft.
Remarks
Fully automated report.
Automated weather observing station with precipitation discriminator.
METAR KHNZ 040735Z AUTO 21005KT 10SM CLR 05/M02 A3022 RMK AO2 T00461025

Settings

Location code

InnerDrive.Weather 4.0.6770.0 Release CLR 4.0.30319.42000
Copyright ©2018 Inner Drive Technology. All rights reserved. Portions Copyright ©1986-2018 David Braverman.

Find weather

Site navigation


Skip Navigation Links

Place info

Page info

PayPal - The safer, easier way to pay online!

Return home.

Copyright ©2020 Inner Drive Technology. Purveyors of fine, hand-crafted computer software. Page printed 2020-12-04T07:41:30 UTC.